Osprey, Florida
Current Conditions -  °F | °C
As of 8:53 AM on Wednesday 22 Oct 2014 (Local Time) from KSRQ Reporting Station
Clear Clear  
Wind Chill: 70°   Ceiling: Unl
Heat Index: 70°   Visibility: 10mi
Dew Point: 66°   Wind: 7mph
Humidity: 87%   Direction: 50°NE
Pressure: 29.97"   Gusts: NA
Location:  27.2°N, 82.49°W
Report Text: KSRQ 221253Z 05006KT 10SM CLR 21/19 A2997 RMK AO2 SLP147 T02110189
Loading
Personal Weather Stations






























Interactive Weather Map
Tropical Storm Tracking
New forecast layout! Learn more

10-Day Weather Forecast

Advertisements
Track Severe Weather on mobile